sensor_id;sensor_type;location;lat;lon;timestamp;temperature;humidity
25504;DHT22;13410;52.114;5.718;2023-02-13T00:02:11;12.60;99.90
25504;DHT22;13410;52.114;5.718;2023-02-13T00:04:38;12.70;99.90
25504;DHT22;13410;52.114;5.718;2023-02-13T00:07:04;12.70;99.90
25504;DHT22;13410;52.114;5.718;2023-02-13T00:09:29;12.60;99.90
25504;DHT22;13410;52.114;5.718;2023-02-13T00:11:55;12.50;99.90
25504;DHT22;13410;52.114;5.718;2023-02-13T00:14:20;12.40;99.90
25504;DHT22;13410;52.114;5.718;2023-02-13T00:16:46;12.40;99.90
25504;DHT22;13410;52.114;5.718;2023-02-13T00:19:11;12.30;99.90
25504;DHT22;13410;52.114;5.718;2023-02-13T00:21:37;12.30;99.90
25504;DHT22;13410;52.114;5.718;2023-02-13T00:24:03;12.20;99.90
25504;DHT22;13410;52.114;5.718;2023-02-13T00:26:28;12.30;99.90
25504;DHT22;13410;52.114;5.718;2023-02-13T00:28:55;12.30;99.90
25504;DHT22;13410;52.114;5.718;2023-02-13T00:31:21;12.30;99.90
25504;DHT22;13410;52.114;5.718;2023-02-13T00:33:46;12.40;99.90
25504;DHT22;13410;52.114;5.718;2023-02-13T00:36:18;12.30;99.90
25504;DHT22;13410;52.114;5.718;2023-02-13T00:38:44;12.40;99.90
25504;DHT22;13410;52.114;5.718;2023-02-13T00:41:10;12.40;99.90
25504;DHT22;13410;52.114;5.718;2023-02-13T00:43:36;12.50;99.90
25504;DHT22;13410;52.114;5.718;2023-02-13T00:46:02;12.60;99.90
25504;DHT22;13410;52.114;5.718;2023-02-13T00:48:29;12.70;99.90
25504;DHT22;13410;52.114;5.718;2023-02-13T00:50:55;12.70;99.90
25504;DHT22;13410;52.114;5.718;2023-02-13T00:53:22;12.60;99.90
25504;DHT22;13410;52.114;5.718;2023-02-13T00:55:48;12.70;99.90
25504;DHT22;13410;52.114;5.718;2023-02-13T00:58:14;12.60;99.90
25504;DHT22;13410;52.114;5.718;2023-02-13T01:00:41;12.60;99.90
25504;DHT22;13410;52.114;5.718;2023-02-13T01:03:06;12.60;99.90
25504;DHT22;13410;52.114;5.718;2023-02-13T01:05:32;12.60;99.90
25504;DHT22;13410;52.114;5.718;2023-02-13T01:07:57;12.40;99.90
25504;DHT22;13410;52.114;5.718;2023-02-13T01:10:24;12.40;99.90
25504;DHT22;13410;52.114;5.718;2023-02-13T01:12:49;12.30;99.90
25504;DHT22;13410;52.114;5.718;2023-02-13T01:15:16;12.20;99.90
25504;DHT22;13410;52.114;5.718;2023-02-13T01:17:42;12.30;99.90
25504;DHT22;13410;52.114;5.718;2023-02-13T01:20:10;12.30;99.90
25504;DHT22;13410;52.114;5.718;2023-02-13T01:22:36;12.40;99.90
25504;DHT22;13410;52.114;5.718;2023-02-13T01:25:01;12.40;99.90
25504;DHT22;13410;52.114;5.718;2023-02-13T01:27:27;12.50;99.90
25504;DHT22;13410;52.114;5.718;2023-02-13T01:29:53;12.40;99.90
25504;DHT22;13410;52.114;5.718;2023-02-13T01:32:19;12.50;99.90
25504;DHT22;13410;52.114;5.718;2023-02-13T01:34:45;12.40;99.90
25504;DHT22;13410;52.114;5.718;2023-02-13T01:37:11;12.40;99.90
25504;DHT22;13410;52.114;5.718;2023-02-13T01:39:36;12.40;99.90
25504;DHT22;13410;52.114;5.718;2023-02-13T01:42:02;12.40;99.90
25504;DHT22;13410;52.114;5.718;2023-02-13T01:47:25;12.40;99.90
25504;DHT22;13410;52.114;5.718;2023-02-13T01:49:59;12.30;99.90
25504;DHT22;13410;52.114;5.718;2023-02-13T01:52:26;12.20;99.90
25504;DHT22;13410;52.114;5.718;2023-02-13T01:54:52;12.20;99.90
25504;DHT22;13410;52.114;5.718;2023-02-13T01:57:21;12.30;99.90
25504;DHT22;13410;52.114;5.718;2023-02-13T01:59:56;12.40;99.90
25504;DHT22;13410;52.114;5.718;2023-02-13T02:02:22;12.30;99.90
25504;DHT22;13410;52.114;5.718;2023-02-13T02:04:48;12.30;99.90
25504;DHT22;13410;52.114;5.718;2023-02-13T02:07:23;12.30;99.90
25504;DHT22;13410;52.114;5.718;2023-02-13T02:09:52;12.30;99.90
25504;DHT22;13410;52.114;5.718;2023-02-13T02:12:28;12.10;99.90
25504;DHT22;13410;52.114;5.718;2023-02-13T02:14:58;12.10;99.90
25504;DHT22;13410;52.114;5.718;2023-02-13T02:17:25;12.20;99.90
25504;DHT22;13410;52.114;5.718;2023-02-13T02:42:12;12.10;99.90
25504;DHT22;13410;52.114;5.718;2023-02-13T02:45:06;12.10;99.90
25504;DHT22;13410;52.114;5.718;2023-02-13T02:47:49;12.10;99.90
25504;DHT22;13410;52.114;5.718;2023-02-13T02:53:35;12.10;99.90
25504;DHT22;13410;52.114;5.718;2023-02-13T02:56:44;12.10;99.90
25504;DHT22;13410;52.114;5.718;2023-02-13T02:59:14;12.10;99.90
25504;DHT22;13410;52.114;5.718;2023-02-13T03:02:00;12.00;99.90
25504;DHT22;13410;52.114;5.718;2023-02-13T03:04:53;12.10;99.90
25504;DHT22;13410;52.114;5.718;2023-02-13T03:07:39;12.10;99.90
25504;DHT22;13410;52.114;5.718;2023-02-13T03:10:24;12.10;99.90
25504;DHT22;13410;52.114;5.718;2023-02-13T03:13:17;12.00;99.90
25504;DHT22;13410;52.114;5.718;2023-02-13T03:15:57;12.00;99.90
25504;DHT22;13410;52.114;5.718;2023-02-13T03:18:49;12.00;99.90
25504;DHT22;13410;52.114;5.718;2023-02-13T03:21:55;12.00;99.90
25504;DHT22;13410;52.114;5.718;2023-02-13T03:27:59;12.00;99.90
25504;DHT22;13410;52.114;5.718;2023-02-13T03:33:38;11.90;99.90
25504;DHT22;13410;52.114;5.718;2023-02-13T03:41:57;12.20;99.90
25504;DHT22;13410;52.114;5.718;2023-02-13T03:46:59;12.40;99.90
25504;DHT22;13410;52.114;5.718;2023-02-13T03:49:34;12.50;99.90
25504;DHT22;13410;52.114;5.718;2023-02-13T03:52:27;12.50;99.90
25504;DHT22;13410;52.114;5.718;2023-02-13T03:57:47;12.50;99.90
25504;DHT22;13410;52.114;5.718;2023-02-13T04:00:37;12.50;99.90
25504;DHT22;13410;52.114;5.718;2023-02-13T04:03:13;12.40;99.90
25504;DHT22;13410;52.114;5.718;2023-02-13T04:05:47;12.40;99.90
25504;DHT22;13410;52.114;5.718;2023-02-13T04:08:13;12.50;99.90
25504;DHT22;13410;52.114;5.718;2023-02-13T04:10:53;12.50;99.90
25504;DHT22;13410;52.114;5.718;2023-02-13T04:13:33;12.50;99.90
25504;DHT22;13410;52.114;5.718;2023-02-13T04:16:11;12.40;99.90
25504;DHT22;13410;52.114;5.718;2023-02-13T04:18:38;12.40;99.90
25504;DHT22;13410;52.114;5.718;2023-02-13T04:21:06;12.40;99.90
25504;DHT22;13410;52.114;5.718;2023-02-13T04:23:32;12.40;99.90
25504;DHT22;13410;52.114;5.718;2023-02-13T04:26:03;12.50;99.90
25504;DHT22;13410;52.114;5.718;2023-02-13T04:28:29;12.40;99.90
25504;DHT22;13410;52.114;5.718;2023-02-13T04:30:55;12.30;99.90
25504;DHT22;13410;52.114;5.718;2023-02-13T04:33:22;12.40;99.90
25504;DHT22;13410;52.114;5.718;2023-02-13T04:35:47;12.30;99.90
25504;DHT22;13410;52.114;5.718;2023-02-13T04:38:13;12.30;99.90
25504;DHT22;13410;52.114;5.718;2023-02-13T04:40:38;12.20;99.90
25504;DHT22;13410;52.114;5.718;2023-02-13T04:43:04;12.20;99.90
25504;DHT22;13410;52.114;5.718;2023-02-13T04:45:29;12.20;99.90
25504;DHT22;13410;52.114;5.718;2023-02-13T04:47:56;12.20;99.90
25504;DHT22;13410;52.114;5.718;2023-02-13T04:50:22;12.10;99.90
25504;DHT22;13410;52.114;5.718;2023-02-13T04:52:54;12.20;99.90
25504;DHT22;13410;52.114;5.718;2023-02-13T04:55:22;12.20;99.90
25504;DHT22;13410;52.114;5.718;2023-02-13T04:57:47;12.20;99.90
25504;DHT22;13410;52.114;5.718;2023-02-13T05:00:13;12.20;99.90
25504;DHT22;13410;52.114;5.718;2023-02-13T05:02:39;12.20;99.90
25504;DHT22;13410;52.114;5.718;2023-02-13T05:05:04;12.20;99.90
25504;DHT22;13410;52.114;5.718;2023-02-13T05:07:30;12.40;99.90
25504;DHT22;13410;52.114;5.718;2023-02-13T05:09:56;12.30;99.90
25504;DHT22;13410;52.114;5.718;2023-02-13T05:12:21;12.20;99.90
25504;DHT22;13410;52.114;5.718;2023-02-13T05:14:47;12.30;99.90
25504;DHT22;13410;52.114;5.718;2023-02-13T05:17:12;12.20;99.90
25504;DHT22;13410;52.114;5.718;2023-02-13T05:19:38;12.20;99.90
25504;DHT22;13410;52.114;5.718;2023-02-13T05:22:03;12.20;99.90
25504;DHT22;13410;52.114;5.718;2023-02-13T05:24:48;12.20;99.90
25504;DHT22;13410;52.114;5.718;2023-02-13T05:27:13;12.30;99.90
25504;DHT22;13410;52.114;5.718;2023-02-13T05:29:39;12.40;99.90
25504;DHT22;13410;52.114;5.718;2023-02-13T05:32:04;12.40;99.90
25504;DHT22;13410;52.114;5.718;2023-02-13T05:34:30;12.40;99.90
25504;DHT22;13410;52.114;5.718;2023-02-13T05:36:55;12.60;99.90
25504;DHT22;13410;52.114;5.718;2023-02-13T05:39:21;12.50;99.90
25504;DHT22;13410;52.114;5.718;2023-02-13T05:41:47;12.40;99.90
25504;DHT22;13410;52.114;5.718;2023-02-13T05:44:14;12.30;99.90
25504;DHT22;13410;52.114;5.718;2023-02-13T05:46:40;12.30;99.90
25504;DHT22;13410;52.114;5.718;2023-02-13T05:49:07;12.40;99.90
25504;DHT22;13410;52.114;5.718;2023-02-13T05:51:33;12.30;99.90
25504;DHT22;13410;52.114;5.718;2023-02-13T05:53:59;12.30;99.90
25504;DHT22;13410;52.114;5.718;2023-02-13T05:56:25;12.20;99.90
25504;DHT22;13410;52.114;5.718;2023-02-13T05:58:51;12.20;99.90
25504;DHT22;13410;52.114;5.718;2023-02-13T06:01:17;12.20;99.90
25504;DHT22;13410;52.114;5.718;2023-02-13T06:03:43;12.20;99.90
25504;DHT22;13410;52.114;5.718;2023-02-13T06:06:08;12.10;99.90
25504;DHT22;13410;52.114;5.718;2023-02-13T06:08:34;12.00;99.90
25504;DHT22;13410;52.114;5.718;2023-02-13T06:11:00;12.10;99.90
25504;DHT22;13410;52.114;5.718;2023-02-13T06:13:26;12.00;99.90
25504;DHT22;13410;52.114;5.718;2023-02-13T06:15:51;12.00;99.90
25504;DHT22;13410;52.114;5.718;2023-02-13T06:18:17;12.00;99.90
25504;DHT22;13410;52.114;5.718;2023-02-13T06:20:43;12.00;99.90
25504;DHT22;13410;52.114;5.718;2023-02-13T06:23:08;12.10;99.90
25504;DHT22;13410;52.114;5.718;2023-02-13T06:25:35;12.10;99.90
25504;DHT22;13410;52.114;5.718;2023-02-13T06:28:01;12.20;99.90
25504;DHT22;13410;52.114;5.718;2023-02-13T06:30:27;12.20;99.90
25504;DHT22;13410;52.114;5.718;2023-02-13T06:32:52;12.30;99.90
25504;DHT22;13410;52.114;5.718;2023-02-13T06:35:18;12.20;99.90
25504;DHT22;13410;52.114;5.718;2023-02-13T06:37:44;12.40;99.90
25504;DHT22;13410;52.114;5.718;2023-02-13T06:40:10;12.40;99.90
25504;DHT22;13410;52.114;5.718;2023-02-13T06:42:36;12.30;99.90
25504;DHT22;13410;52.114;5.718;2023-02-13T06:45:02;12.30;99.90
25504;DHT22;13410;52.114;5.718;2023-02-13T06:47:27;12.30;99.90
25504;DHT22;13410;52.114;5.718;2023-02-13T06:49:53;12.40;99.90
25504;DHT22;13410;52.114;5.718;2023-02-13T06:52:19;12.40;99.90
25504;DHT22;13410;52.114;5.718;2023-02-13T06:54:44;12.50;99.90
25504;DHT22;13410;52.114;5.718;2023-02-13T06:57:10;12.50;99.90
25504;DHT22;13410;52.114;5.718;2023-02-13T06:59:36;12.50;99.90
25504;DHT22;13410;52.114;5.718;2023-02-13T07:02:01;12.50;99.90
25504;DHT22;13410;52.114;5.718;2023-02-13T07:04:27;12.40;99.90
25504;DHT22;13410;52.114;5.718;2023-02-13T07:06:56;12.40;99.90
25504;DHT22;13410;52.114;5.718;2023-02-13T07:09:22;12.40;99.90
25504;DHT22;13410;52.114;5.718;2023-02-13T07:11:48;12.40;99.90
25504;DHT22;13410;52.114;5.718;2023-02-13T07:14:14;12.40;99.90
25504;DHT22;13410;52.114;5.718;2023-02-13T07:16:39;12.40;99.90
25504;DHT22;13410;52.114;5.718;2023-02-13T07:19:05;12.50;99.90
25504;DHT22;13410;52.114;5.718;2023-02-13T07:21:31;12.40;99.90
25504;DHT22;13410;52.114;5.718;2023-02-13T07:23:56;12.40;99.90
25504;DHT22;13410;52.114;5.718;2023-02-13T07:26:22;12.30;99.90
25504;DHT22;13410;52.114;5.718;2023-02-13T07:28:47;12.50;99.90
25504;DHT22;13410;52.114;5.718;2023-02-13T07:31:13;12.50;99.90
25504;DHT22;13410;52.114;5.718;2023-02-13T07:33:39;12.50;99.90
25504;DHT22;13410;52.114;5.718;2023-02-13T07:36:04;12.50;99.90
25504;DHT22;13410;52.114;5.718;2023-02-13T07:38:31;12.60;99.90
25504;DHT22;13410;52.114;5.718;2023-02-13T07:41:00;12.60;99.90
25504;DHT22;13410;52.114;5.718;2023-02-13T07:43:26;12.50;99.90
25504;DHT22;13410;52.114;5.718;2023-02-13T07:45:52;12.60;99.90
25504;DHT22;13410;52.114;5.718;2023-02-13T07:48:24;12.60;99.90
25504;DHT22;13410;52.114;5.718;2023-02-13T07:50:51;12.60;99.90
25504;DHT22;13410;52.114;5.718;2023-02-13T07:53:17;12.60;99.90
25504;DHT22;13410;52.114;5.718;2023-02-13T07:55:43;12.60;99.90
25504;DHT22;13410;52.114;5.718;2023-02-13T07:58:08;12.60;99.90
25504;DHT22;13410;52.114;5.718;2023-02-13T08:00:34;12.50;99.90
25504;DHT22;13410;52.114;5.718;2023-02-13T08:03:00;12.50;99.90
25504;DHT22;13410;52.114;5.718;2023-02-13T08:05:26;12.50;99.90
25504;DHT22;13410;52.114;5.718;2023-02-13T08:07:52;12.40;99.90
25504;DHT22;13410;52.114;5.718;2023-02-13T08:10:18;12.40;99.90
25504;DHT22;13410;52.114;5.718;2023-02-13T08:13:03;12.40;99.90
25504;DHT22;13410;52.114;5.718;2023-02-13T08:15:29;12.50;99.90
25504;DHT22;13410;52.114;5.718;2023-02-13T08:17:55;12.60;99.90
25504;DHT22;13410;52.114;5.718;2023-02-13T08:20:20;12.50;99.90
25504;DHT22;13410;52.114;5.718;2023-02-13T08:22:46;12.50;99.90
25504;DHT22;13410;52.114;5.718;2023-02-13T08:25:12;12.60;99.90
25504;DHT22;13410;52.114;5.718;2023-02-13T08:27:37;12.70;99.90
25504;DHT22;13410;52.114;5.718;2023-02-13T08:30:04;12.70;99.90
25504;DHT22;13410;52.114;5.718;2023-02-13T08:32:30;12.70;99.90
25504;DHT22;13410;52.114;5.718;2023-02-13T08:34:55;12.70;99.90
25504;DHT22;13410;52.114;5.718;2023-02-13T08:37:21;12.60;99.90
25504;DHT22;13410;52.114;5.718;2023-02-13T08:39:46;12.60;99.90
25504;DHT22;13410;52.114;5.718;2023-02-13T08:42:12;12.60;99.90
25504;DHT22;13410;52.114;5.718;2023-02-13T08:44:38;12.60;99.90
25504;DHT22;13410;52.114;5.718;2023-02-13T08:47:06;12.70;99.90
25504;DHT22;13410;52.114;5.718;2023-02-13T08:49:32;12.80;99.90
25504;DHT22;13410;52.114;5.718;2023-02-13T08:51:59;12.80;99.90
25504;DHT22;13410;52.114;5.718;2023-02-13T08:54:25;13.00;99.90
25504;DHT22;13410;52.114;5.718;2023-02-13T08:56:52;12.80;99.90
25504;DHT22;13410;52.114;5.718;2023-02-13T08:59:18;12.70;99.90
25504;DHT22;13410;52.114;5.718;2023-02-13T09:01:44;12.60;99.90
25504;DHT22;13410;52.114;5.718;2023-02-13T09:04:10;12.70;99.90
25504;DHT22;13410;52.114;5.718;2023-02-13T09:06:36;12.70;99.90
25504;DHT22;13410;52.114;5.718;2023-02-13T09:09:04;12.80;99.90
25504;DHT22;13410;52.114;5.718;2023-02-13T09:11:29;12.90;99.90
25504;DHT22;13410;52.114;5.718;2023-02-13T09:13:55;13.00;99.90
25504;DHT22;13410;52.114;5.718;2023-02-13T09:16:21;13.00;99.90
25504;DHT22;13410;52.114;5.718;2023-02-13T09:18:50;13.00;99.90
25504;DHT22;13410;52.114;5.718;2023-02-13T09:21:18;12.90;99.90
25504;DHT22;13410;52.114;5.718;2023-02-13T09:23:44;12.90;99.90
25504;DHT22;13410;52.114;5.718;2023-02-13T09:26:12;13.00;99.90
25504;DHT22;13410;52.114;5.718;2023-02-13T09:28:38;13.20;99.90
25504;DHT22;13410;52.114;5.718;2023-02-13T09:31:08;13.40;99.90
25504;DHT22;13410;52.114;5.718;2023-02-13T09:33:35;13.70;99.90
25504;DHT22;13410;52.114;5.718;2023-02-13T09:36:06;13.90;99.90
25504;DHT22;13410;52.114;5.718;2023-02-13T09:38:31;13.80;99.90
25504;DHT22;13410;52.114;5.718;2023-02-13T09:41:00;14.00;99.90
25504;DHT22;13410;52.114;5.718;2023-02-13T09:43:39;14.20;99.90
25504;DHT22;13410;52.114;5.718;2023-02-13T09:46:16;14.30;99.90
25504;DHT22;13410;52.114;5.718;2023-02-13T09:48:46;14.30;99.90
25504;DHT22;13410;52.114;5.718;2023-02-13T09:51:15;14.20;99.90
25504;DHT22;13410;52.114;5.718;2023-02-13T09:53:52;14.00;99.90
25504;DHT22;13410;52.114;5.718;2023-02-13T09:56:43;13.90;99.90
25504;DHT22;13410;52.114;5.718;2023-02-13T10:01:43;14.00;99.90
25504;DHT22;13410;52.114;5.718;2023-02-13T10:07:08;14.20;99.90
25504;DHT22;13410;52.114;5.718;2023-02-13T10:10:07;14.10;99.90
25504;DHT22;13410;52.114;5.718;2023-02-13T10:18:08;14.60;99.90
25504;DHT22;13410;52.114;5.718;2023-02-13T10:20:44;14.70;99.90
25504;DHT22;13410;52.114;5.718;2023-02-13T10:23:18;15.10;99.90
25504;DHT22;13410;52.114;5.718;2023-02-13T10:26:01;15.10;99.90
25504;DHT22;13410;52.114;5.718;2023-02-13T10:28:34;14.80;99.90
25504;DHT22;13410;52.114;5.718;2023-02-13T10:31:16;14.80;99.90
25504;DHT22;13410;52.114;5.718;2023-02-13T10:33:52;14.80;99.90
25504;DHT22;13410;52.114;5.718;2023-02-13T10:36:25;14.70;99.90
25504;DHT22;13410;52.114;5.718;2023-02-13T10:39:04;14.60;99.90
25504;DHT22;13410;52.114;5.718;2023-02-13T10:41:41;14.30;99.90
25504;DHT22;13410;52.114;5.718;2023-02-13T10:44:30;14.40;99.90
25504;DHT22;13410;52.114;5.718;2023-02-13T11:02:57;15.00;99.90
25504;DHT22;13410;52.114;5.718;2023-02-13T11:05:29;14.90;99.90
25504;DHT22;13410;52.114;5.718;2023-02-13T11:07:55;14.80;99.90
25504;DHT22;13410;52.114;5.718;2023-02-13T11:10:24;14.70;99.90
25504;DHT22;13410;52.114;5.718;2023-02-13T11:12:50;14.60;99.90
25504;DHT22;13410;52.114;5.718;2023-02-13T11:15:34;14.60;99.90
25504;DHT22;13410;52.114;5.718;2023-02-13T11:18:14;14.80;99.90
25504;DHT22;13410;52.114;5.718;2023-02-13T11:20:42;14.80;99.90
25504;DHT22;13410;52.114;5.718;2023-02-13T11:25:58;15.30;99.90
25504;DHT22;13410;52.114;5.718;2023-02-13T11:28:24;15.20;99.90
25504;DHT22;13410;52.114;5.718;2023-02-13T11:30:51;15.00;99.90
25504;DHT22;13410;52.114;5.718;2023-02-13T11:35:46;15.00;99.90
25504;DHT22;13410;52.114;5.718;2023-02-13T11:38:22;14.90;99.90
25504;DHT22;13410;52.114;5.718;2023-02-13T11:40:51;15.10;99.90
25504;DHT22;13410;52.114;5.718;2023-02-13T11:43:26;15.50;99.90
25504;DHT22;13410;52.114;5.718;2023-02-13T11:46:22;15.80;99.90
25504;DHT22;13410;52.114;5.718;2023-02-13T11:49:02;16.00;99.90
25504;DHT22;13410;52.114;5.718;2023-02-13T11:54:01;16.00;99.90
25504;DHT22;13410;52.114;5.718;2023-02-13T11:56:27;15.70;99.90
25504;DHT22;13410;52.114;5.718;2023-02-13T11:59:01;15.70;99.90
25504;DHT22;13410;52.114;5.718;2023-02-13T12:01:27;15.60;99.90
25504;DHT22;13410;52.114;5.718;2023-02-13T12:04:13;15.60;99.90
25504;DHT22;13410;52.114;5.718;2023-02-13T12:06:58;15.40;99.90
25504;DHT22;13410;52.114;5.718;2023-02-13T12:09:24;15.30;99.90
25504;DHT22;13410;52.114;5.718;2023-02-13T12:11:51;15.10;99.90
25504;DHT22;13410;52.114;5.718;2023-02-13T12:14:21;15.10;99.90
25504;DHT22;13410;52.114;5.718;2023-02-13T12:17:17;15.20;99.90
25504;DHT22;13410;52.114;5.718;2023-02-13T12:19:47;15.20;99.90
25504;DHT22;13410;52.114;5.718;2023-02-13T12:25:24;15.30;99.90
25504;DHT22;13410;52.114;5.718;2023-02-13T12:36:21;15.50;99.90
25504;DHT22;13410;52.114;5.718;2023-02-13T12:46:51;15.50;99.90
25504;DHT22;13410;52.114;5.718;2023-02-13T12:57:00;15.70;99.90
25504;DHT22;13410;52.114;5.718;2023-02-13T13:00:14;15.60;99.90
25504;DHT22;13410;52.114;5.718;2023-02-13T13:03:00;15.70;99.90
25504;DHT22;13410;52.114;5.718;2023-02-13T13:05:52;15.90;99.90
25504;DHT22;13410;52.114;5.718;2023-02-13T13:11:44;16.30;99.90
25504;DHT22;13410;52.114;5.718;2023-02-13T13:22:22;17.20;99.90
25504;DHT22;13410;52.114;5.718;2023-02-13T13:25:12;17.20;99.90
25504;DHT22;13410;52.114;5.718;2023-02-13T13:30:42;17.30;99.90
25504;DHT22;13410;52.114;5.718;2023-02-13T13:38:45;17.30;99.90
25504;DHT22;13410;52.114;5.718;2023-02-13T13:44:51;17.40;99.90
25504;DHT22;13410;52.114;5.718;2023-02-13T13:50:29;17.40;99.90
25504;DHT22;13410;52.114;5.718;2023-02-13T13:53:12;17.30;99.90
25504;DHT22;13410;52.114;5.718;2023-02-13T13:58:46;16.60;99.90
25504;DHT22;13410;52.114;5.718;2023-02-13T14:01:28;16.90;99.90
25504;DHT22;13410;52.114;5.718;2023-02-13T14:04:37;17.10;99.90
25504;DHT22;13410;52.114;5.718;2023-02-13T14:07:12;17.20;99.90
25504;DHT22;13410;52.114;5.718;2023-02-13T14:09:40;17.20;99.90
25504;DHT22;13410;52.114;5.718;2023-02-13T14:14:56;17.00;99.90
25504;DHT22;13410;52.114;5.718;2023-02-13T14:23:36;17.10;99.90
25504;DHT22;13410;52.114;5.718;2023-02-13T14:26:16;16.80;99.90
25504;DHT22;13410;52.114;5.718;2023-02-13T14:31:22;16.60;99.90
25504;DHT22;13410;52.114;5.718;2023-02-13T14:33:59;16.50;99.90
25504;DHT22;13410;52.114;5.718;2023-02-13T14:36:34;16.40;99.90
25504;DHT22;13410;52.114;5.718;2023-02-13T14:39:32;16.20;99.90
25504;DHT22;13410;52.114;5.718;2023-02-13T14:42:05;16.00;99.90
25504;DHT22;13410;52.114;5.718;2023-02-13T14:44:49;16.00;99.90
25504;DHT22;13410;52.114;5.718;2023-02-13T14:47:24;16.10;99.90
25504;DHT22;13410;52.114;5.718;2023-02-13T14:49:52;16.10;99.90
25504;DHT22;13410;52.114;5.718;2023-02-13T14:52:24;16.20;99.90
25504;DHT22;13410;52.114;5.718;2023-02-13T14:54:59;16.30;99.90
25504;DHT22;13410;52.114;5.718;2023-02-13T14:57:29;16.20;99.90
25504;DHT22;13410;52.114;5.718;2023-02-13T15:00:00;16.30;99.90
25504;DHT22;13410;52.114;5.718;2023-02-13T15:02:29;16.30;99.90
25504;DHT22;13410;52.114;5.718;2023-02-13T15:05:00;16.10;99.90
25504;DHT22;13410;52.114;5.718;2023-02-13T15:07:30;16.00;99.90
25504;DHT22;13410;52.114;5.718;2023-02-13T15:10:16;16.00;99.90
25504;DHT22;13410;52.114;5.718;2023-02-13T15:12:55;15.90;99.90
25504;DHT22;13410;52.114;5.718;2023-02-13T15:15:25;15.80;99.90
25504;DHT22;13410;52.114;5.718;2023-02-13T15:17:59;15.80;99.90
25504;DHT22;13410;52.114;5.718;2023-02-13T15:20:27;15.60;99.90
25504;DHT22;13410;52.114;5.718;2023-02-13T15:22:53;15.70;99.90
25504;DHT22;13410;52.114;5.718;2023-02-13T15:27:54;15.80;99.90
25504;DHT22;13410;52.114;5.718;2023-02-13T15:32:56;15.60;99.90
25504;DHT22;13410;52.114;5.718;2023-02-13T15:35:24;15.50;99.90
25504;DHT22;13410;52.114;5.718;2023-02-13T15:37:50;15.70;99.90
25504;DHT22;13410;52.114;5.718;2023-02-13T15:40:27;15.60;99.90
25504;DHT22;13410;52.114;5.718;2023-02-13T15:42:54;15.50;99.90
25504;DHT22;13410;52.114;5.718;2023-02-13T15:45:22;15.60;99.90
25504;DHT22;13410;52.114;5.718;2023-02-13T15:47:50;15.50;99.90
25504;DHT22;13410;52.114;5.718;2023-02-13T15:50:29;15.50;99.90
25504;DHT22;13410;52.114;5.718;2023-02-13T15:52:55;15.50;99.90
25504;DHT22;13410;52.114;5.718;2023-02-13T15:55:24;15.60;99.90
25504;DHT22;13410;52.114;5.718;2023-02-13T15:57:53;15.50;99.90
25504;DHT22;13410;52.114;5.718;2023-02-13T16:00:40;15.40;99.90
25504;DHT22;13410;52.114;5.718;2023-02-13T16:03:13;15.30;99.90
25504;DHT22;13410;52.114;5.718;2023-02-13T16:05:40;15.30;99.90
25504;DHT22;13410;52.114;5.718;2023-02-13T16:08:29;15.30;99.90
25504;DHT22;13410;52.114;5.718;2023-02-13T16:11:22;15.30;99.90
25504;DHT22;13410;52.114;5.718;2023-02-13T16:14:06;15.20;99.90
25504;DHT22;13410;52.114;5.718;2023-02-13T16:16:54;15.10;99.90
25504;DHT22;13410;52.114;5.718;2023-02-13T16:22:28;14.90;99.90
25504;DHT22;13410;52.114;5.718;2023-02-13T16:24:52;14.90;99.90
25504;DHT22;13410;52.114;5.718;2023-02-13T16:27:21;14.80;99.90
25504;DHT22;13410;52.114;5.718;2023-02-13T16:30:03;14.70;99.90
25504;DHT22;13410;52.114;5.718;2023-02-13T16:32:32;14.70;99.90
25504;DHT22;13410;52.114;5.718;2023-02-13T16:35:29;14.80;99.90
25504;DHT22;13410;52.114;5.718;2023-02-13T16:37:59;14.70;99.90
25504;DHT22;13410;52.114;5.718;2023-02-13T16:40:38;14.70;99.90
25504;DHT22;13410;52.114;5.718;2023-02-13T16:56:50;14.50;99.90
25504;DHT22;13410;52.114;5.718;2023-02-13T16:59:33;14.30;99.90
25504;DHT22;13410;52.114;5.718;2023-02-13T17:02:13;14.30;99.90
25504;DHT22;13410;52.114;5.718;2023-02-13T17:04:41;14.30;99.90
25504;DHT22;13410;52.114;5.718;2023-02-13T17:07:30;14.20;99.90
25504;DHT22;13410;52.114;5.718;2023-02-13T17:10:00;14.20;99.90
25504;DHT22;13410;52.114;5.718;2023-02-13T17:12:28;14.00;99.90
25504;DHT22;13410;52.114;5.718;2023-02-13T17:14:56;14.00;99.90
25504;DHT22;13410;52.114;5.718;2023-02-13T17:17:22;14.00;99.90
25504;DHT22;13410;52.114;5.718;2023-02-13T17:19:49;13.90;99.90
25504;DHT22;13410;52.114;5.718;2023-02-13T17:22:27;13.80;99.90
25504;DHT22;13410;52.114;5.718;2023-02-13T17:24:56;13.80;99.90
25504;DHT22;13410;52.114;5.718;2023-02-13T17:27:22;13.80;99.90
25504;DHT22;13410;52.114;5.718;2023-02-13T17:29:47;13.80;99.90
25504;DHT22;13410;52.114;5.718;2023-02-13T17:32:16;13.70;99.90
25504;DHT22;13410;52.114;5.718;2023-02-13T17:34:42;13.50;99.90
25504;DHT22;13410;52.114;5.718;2023-02-13T17:37:31;13.40;99.90
25504;DHT22;13410;52.114;5.718;2023-02-13T17:39:57;13.30;99.90
25504;DHT22;13410;52.114;5.718;2023-02-13T17:42:27;13.30;99.90
25504;DHT22;13410;52.114;5.718;2023-02-13T17:44:56;13.30;99.90
25504;DHT22;13410;52.114;5.718;2023-02-13T17:47:23;13.30;99.90
25504;DHT22;13410;52.114;5.718;2023-02-13T17:49:49;13.10;99.90
25504;DHT22;13410;52.114;5.718;2023-02-13T17:52:26;13.20;99.90
25504;DHT22;13410;52.114;5.718;2023-02-13T17:54:53;13.20;99.90
25504;DHT22;13410;52.114;5.718;2023-02-13T17:57:19;13.20;99.90
25504;DHT22;13410;52.114;5.718;2023-02-13T17:59:45;13.30;99.90
25504;DHT22;13410;52.114;5.718;2023-02-13T18:02:20;13.10;99.90
25504;DHT22;13410;52.114;5.718;2023-02-13T18:04:47;13.10;99.90
25504;DHT22;13410;52.114;5.718;2023-02-13T18:07:15;12.90;99.90
25504;DHT22;13410;52.114;5.718;2023-02-13T18:09:41;13.00;99.90
25504;DHT22;13410;52.114;5.718;2023-02-13T18:12:29;13.00;99.90
25504;DHT22;13410;52.114;5.718;2023-02-13T18:14:54;12.90;99.90
25504;DHT22;13410;52.114;5.718;2023-02-13T18:17:20;12.70;99.90
25504;DHT22;13410;52.114;5.718;2023-02-13T18:19:46;12.70;99.90
25504;DHT22;13410;52.114;5.718;2023-02-13T18:22:11;12.60;99.90
25504;DHT22;13410;52.114;5.718;2023-02-13T18:24:39;12.50;99.90
25504;DHT22;13410;52.114;5.718;2023-02-13T18:27:05;12.40;99.90
25504;DHT22;13410;52.114;5.718;2023-02-13T18:29:33;12.30;99.90
25504;DHT22;13410;52.114;5.718;2023-02-13T18:32:02;12.20;99.90
25504;DHT22;13410;52.114;5.718;2023-02-13T18:34:27;12.10;99.90
25504;DHT22;13410;52.114;5.718;2023-02-13T18:36:53;12.10;99.90
25504;DHT22;13410;52.114;5.718;2023-02-13T18:39:18;12.00;99.90
25504;DHT22;13410;52.114;5.718;2023-02-13T18:41:44;11.90;99.90
25504;DHT22;13410;52.114;5.718;2023-02-13T18:44:10;11.90;99.90